createdAt,value
2023-04-17T00:00:35.408Z,0.00
2023-04-17T00:05:35.346Z,0.00
2023-04-17T00:10:35.275Z,0.00
2023-04-17T00:15:35.217Z,0.00
2023-04-17T00:20:35.131Z,0.00
2023-04-17T00:25:35.072Z,0.00
2023-04-17T00:30:34.996Z,0.00
2023-04-17T00:35:34.937Z,0.00
2023-04-17T00:40:34.866Z,0.00
2023-04-17T00:45:34.850Z,0.00
2023-04-17T00:50:34.731Z,0.00
2023-04-17T00:55:34.686Z,0.00
2023-04-17T01:00:34.592Z,0.00
2023-04-17T01:05:34.555Z,0.00
2023-04-17T01:10:34.488Z,0.00
2023-04-17T01:15:34.416Z,0.00
2023-04-17T01:20:34.340Z,0.00
2023-04-17T01:25:34.279Z,0.00
2023-04-17T01:30:34.223Z,0.00
2023-04-17T01:35:34.145Z,0.00
2023-04-17T01:40:34.064Z,0.00
2023-04-17T01:45:34.002Z,0.00
2023-04-17T01:50:33.934Z,0.00
2023-04-17T01:55:33.871Z,0.00
2023-04-17T02:00:33.800Z,0.00
2023-04-17T02:05:33.737Z,0.00
2023-04-17T02:10:33.666Z,0.00
2023-04-17T02:15:33.682Z,0.00
2023-04-17T02:20:33.539Z,0.00
2023-04-17T02:25:33.491Z,0.00
2023-04-17T02:30:33.401Z,0.00
2023-04-17T02:35:33.368Z,0.00
2023-04-17T02:40:33.267Z,0.00
2023-04-17T02:45:33.222Z,0.00
2023-04-17T02:50:33.141Z,0.00
2023-04-17T02:55:33.088Z,0.00
2023-04-17T03:00:33.055Z,0.00
2023-04-17T03:05:32.963Z,0.00
2023-04-17T03:10:32.891Z,0.00
2023-04-17T03:15:32.828Z,0.00
2023-04-17T03:20:32.745Z,0.00
2023-04-17T03:25:32.697Z,0.00
2023-04-17T03:30:32.617Z,0.00
2023-04-17T03:35:32.556Z,0.00
2023-04-17T03:40:33.725Z,0.00
2023-04-17T03:45:32.460Z,0.00
2023-04-17T03:50:32.367Z,0.00
2023-04-17T03:55:32.288Z,0.00
2023-04-17T04:00:32.224Z,4.00
2023-04-17T04:05:32.152Z,8.00
2023-04-17T04:10:32.085Z,8.00
2023-04-17T04:15:32.014Z,16.00
2023-04-17T04:20:31.940Z,28.00
2023-04-17T04:25:31.882Z,36.00
2023-04-17T04:30:31.803Z,44.00
2023-04-17T04:35:31.748Z,60.00
2023-04-17T04:40:31.675Z,76.00
2023-04-17T04:45:31.612Z,128.00
2023-04-17T04:50:31.556Z,140.00
2023-04-17T04:55:31.484Z,184.00
2023-04-17T05:00:31.421Z,252.00
2023-04-17T05:05:31.353Z,296.00
2023-04-17T05:10:31.305Z,372.00
2023-04-17T05:15:31.221Z,492.00
2023-04-17T05:20:31.156Z,500.00
2023-04-17T05:25:31.092Z,572.00
2023-04-17T05:30:31.045Z,700.00
2023-04-17T05:35:30.980Z,732.00
2023-04-17T05:40:30.893Z,696.00
2023-04-17T05:45:30.850Z,684.00
2023-04-17T05:50:30.743Z,700.00
2023-04-17T05:55:30.699Z,688.00
2023-04-17T06:00:30.612Z,728.00
2023-04-17T06:05:30.671Z,868.00
2023-04-17T06:10:30.485Z,924.00
2023-04-17T06:15:30.422Z,1064.00
2023-04-17T06:20:30.353Z,1096.00
2023-04-17T06:25:30.285Z,1272.00
2023-04-17T06:30:30.217Z,1648.00
2023-04-17T06:35:30.156Z,1508.00
2023-04-17T06:40:30.098Z,1624.00
2023-04-17T06:45:30.048Z,1456.00
2023-04-17T06:50:29.965Z,1592.00
2023-04-17T06:55:29.905Z,1892.00
2023-04-17T07:00:29.843Z,1752.00
2023-04-17T07:05:29.777Z,1816.00
2023-04-17T07:10:29.692Z,2288.00
2023-04-17T07:15:29.681Z,3500.00
2023-04-17T07:20:29.550Z,5076.00
2023-04-17T07:25:29.500Z,5260.00
2023-04-17T07:30:29.431Z,5848.00
2023-04-17T07:35:29.359Z,6252.00
2023-04-17T07:40:29.280Z,4844.00
2023-04-17T07:45:29.245Z,4788.00
2023-04-17T07:50:29.158Z,5376.00
2023-04-17T07:55:29.092Z,4596.00
2023-04-17T08:00:29.021Z,4672.00
2023-04-17T08:05:29.007Z,4604.00
2023-04-17T08:10:28.893Z,5132.00
2023-04-17T08:15:28.849Z,5288.00
2023-04-17T08:20:28.757Z,5372.00
2023-04-17T08:25:28.710Z,7524.00
2023-04-17T08:30:28.623Z,7020.00
2023-04-17T08:35:28.579Z,6744.00
2023-04-17T08:40:28.495Z,6292.00
2023-04-17T08:45:28.443Z,6344.00
2023-04-17T08:50:28.371Z,6180.00
2023-04-17T08:55:28.306Z,6564.00
2023-04-17T09:00:28.255Z,6840.00
2023-04-17T09:05:28.169Z,10420.00
2023-04-17T09:10:28.096Z,8256.00
2023-04-17T09:15:28.035Z,5944.00
2023-04-17T09:20:27.961Z,6240.00
2023-04-17T09:25:27.902Z,6032.00
2023-04-17T09:30:27.855Z,8068.00
2023-04-17T09:35:27.785Z,6208.00
2023-04-17T09:40:27.704Z,8128.00
2023-04-17T09:45:27.657Z,7712.00
2023-04-17T09:50:27.571Z,13288.00
2023-04-17T09:55:27.534Z,19264.00
2023-04-17T10:00:27.475Z,13372.00
2023-04-17T10:05:27.377Z,27104.00
2023-04-17T10:10:27.300Z,17952.00
2023-04-17T10:15:27.227Z,45568.00
2023-04-17T10:20:27.156Z,63488.00
2023-04-17T10:25:27.098Z,65792.00
2023-04-17T10:30:27.037Z,20224.00
2023-04-17T10:35:26.964Z,19392.00
2023-04-17T10:40:26.903Z,59264.00
2023-04-17T10:45:26.838Z,60736.00
2023-04-17T10:50:26.761Z,17664.00
2023-04-17T10:55:26.719Z,59168.00
2023-04-17T11:00:26.627Z,59136.00
2023-04-17T11:05:26.597Z,33856.00
2023-04-17T11:10:26.516Z,33056.00
2023-04-17T11:15:26.444Z,26336.00
2023-04-17T11:20:26.382Z,24448.00
2023-04-17T11:25:26.320Z,24864.00
2023-04-17T11:30:26.230Z,24256.00
2023-04-17T11:35:26.168Z,9128.00
2023-04-17T11:40:26.122Z,8796.00
2023-04-17T11:45:26.034Z,11260.00
2023-04-17T11:50:25.968Z,15924.00
2023-04-17T11:55:25.914Z,16056.00
2023-04-17T12:00:25.845Z,10788.00
2023-04-17T12:05:25.844Z,10196.00
2023-04-17T12:10:25.713Z,9708.00
2023-04-17T12:15:25.647Z,12904.00
2023-04-17T12:20:26.779Z,14544.00
2023-04-17T12:25:25.523Z,14928.00
2023-04-17T12:30:25.439Z,15496.00
2023-04-17T12:35:25.383Z,15556.00
2023-04-17T12:40:25.331Z,14076.00
2023-04-17T12:45:25.314Z,15052.00
2023-04-17T12:50:25.186Z,14952.00
2023-04-17T12:55:25.118Z,15568.00
2023-04-17T13:00:25.061Z,15432.00
2023-04-17T13:05:24.995Z,14592.00
2023-04-17T13:10:24.931Z,13196.00
2023-04-17T13:15:24.863Z,11804.00
2023-04-17T13:20:24.801Z,10292.00
2023-04-17T13:25:24.731Z,8580.00
2023-04-17T13:30:24.657Z,8868.00
2023-04-17T13:35:24.595Z,10256.00
2023-04-17T13:40:24.530Z,10880.00
2023-04-17T13:45:24.484Z,11708.00
2023-04-17T13:50:24.406Z,7932.00
2023-04-17T13:55:24.414Z,7480.00
2023-04-17T14:00:24.278Z,7876.00
2023-04-17T14:05:24.208Z,7404.00
2023-04-17T14:10:24.155Z,6396.00
2023-04-17T14:15:24.073Z,6732.00
2023-04-17T14:20:23.994Z,8612.00
2023-04-17T14:25:23.936Z,7788.00
2023-04-17T14:30:23.891Z,7164.00
2023-04-17T14:35:23.887Z,6912.00
2023-04-17T14:40:23.828Z,5260.00
2023-04-17T14:45:23.814Z,5132.00
2023-04-17T14:50:23.787Z,6660.00
2023-04-17T14:55:23.530Z,8288.00
2023-04-17T15:00:23.462Z,7604.00
2023-04-17T15:05:23.417Z,7220.00
2023-04-17T15:10:23.329Z,5600.00
2023-04-17T15:15:23.260Z,6404.00
2023-04-17T15:20:23.996Z,6352.00
2023-04-17T15:25:23.138Z,5748.00
2023-04-17T15:30:23.068Z,5228.00
2023-04-17T15:35:22.994Z,5772.00
2023-04-17T15:40:22.919Z,6956.00
2023-04-17T15:45:22.857Z,5948.00
2023-04-17T15:50:22.824Z,3648.00
2023-04-17T15:55:22.730Z,3696.00
2023-04-17T16:00:22.658Z,4396.00
2023-04-17T16:05:22.588Z,4592.00
2023-04-17T16:10:22.507Z,4324.00
2023-04-17T16:15:22.457Z,4080.00
2023-04-17T16:20:22.377Z,3980.00
2023-04-17T16:25:22.325Z,4064.00
2023-04-17T16:30:22.244Z,3928.00
2023-04-17T16:35:22.179Z,3404.00
2023-04-17T16:40:22.110Z,3052.00
2023-04-17T16:45:22.054Z,2940.00
2023-04-17T16:50:24.281Z,3140.00
2023-04-17T16:55:21.936Z,2960.00
2023-04-17T17:00:21.843Z,2512.00
2023-04-17T17:05:21.810Z,2388.00
2023-04-17T17:10:21.705Z,2264.00
2023-04-17T17:15:21.658Z,2048.00
2023-04-17T17:20:21.590Z,1460.00
2023-04-17T17:25:21.529Z,1004.00
2023-04-17T17:30:21.447Z,728.00
2023-04-17T17:35:21.486Z,492.00
2023-04-17T17:40:21.310Z,336.00
2023-04-17T17:45:21.254Z,288.00
2023-04-17T17:50:21.178Z,252.00
2023-04-17T17:55:21.120Z,236.00
2023-04-17T18:00:21.154Z,196.00
2023-04-17T18:05:21.002Z,148.00
2023-04-17T18:10:20.927Z,104.00
2023-04-17T18:15:20.889Z,60.00
2023-04-17T18:20:20.900Z,36.00
2023-04-17T18:25:20.741Z,12.00
2023-04-17T18:30:20.645Z,4.00
2023-04-17T18:35:20.596Z,4.00
2023-04-17T18:40:20.512Z,0.00
2023-04-17T18:45:20.466Z,0.00
2023-04-17T18:50:20.393Z,0.00
2023-04-17T18:55:20.311Z,0.00
2023-04-17T19:00:20.273Z,0.00
2023-04-17T19:05:20.206Z,0.00
2023-04-17T19:10:20.128Z,0.00
2023-04-17T19:15:20.048Z,0.00
2023-04-17T19:20:19.992Z,0.00
2023-04-17T19:25:19.917Z,0.00
2023-04-17T19:30:19.862Z,0.00
2023-04-17T19:35:19.778Z,0.00
2023-04-17T19:40:25.000Z,0.00
2023-04-17T19:45:19.643Z,0.00
2023-04-17T19:50:19.578Z,0.00
2023-04-17T19:55:19.502Z,0.00
2023-04-17T20:00:19.442Z,0.00
2023-04-17T20:05:19.371Z,0.00
2023-04-17T20:10:19.309Z,0.00
2023-04-17T20:15:19.234Z,0.00
2023-04-17T20:20:19.194Z,0.00
2023-04-17T20:25:19.106Z,0.00
2023-04-17T20:30:19.074Z,0.00
2023-04-17T20:35:18.972Z,0.00
2023-04-17T20:40:18.923Z,0.00
2023-04-17T20:45:18.841Z,0.00
2023-04-17T20:50:18.797Z,0.00
2023-04-17T20:55:18.876Z,0.00
2023-04-17T21:00:18.662Z,0.00
2023-04-17T21:05:18.574Z,0.00
2023-04-17T21:10:18.519Z,0.00
2023-04-17T21:15:18.452Z,0.00
2023-04-17T21:20:18.381Z,0.00
2023-04-17T21:25:18.316Z,0.00
2023-04-17T21:30:18.273Z,0.00
2023-04-17T21:35:18.178Z,0.00
2023-04-17T21:40:18.125Z,0.00
2023-04-17T21:45:18.045Z,0.00
2023-04-17T21:50:17.983Z,0.00
2023-04-17T21:55:17.918Z,0.00
2023-04-17T22:00:17.876Z,0.00
2023-04-17T22:05:17.779Z,0.00
2023-04-17T22:10:17.724Z,0.00
2023-04-17T22:15:17.664Z,0.00
2023-04-17T22:20:17.586Z,0.00
2023-04-17T22:25:17.529Z,0.00
2023-04-17T22:30:17.459Z,0.00
2023-04-17T22:35:17.390Z,0.00
2023-04-17T22:40:17.332Z,0.00
2023-04-17T22:45:17.264Z,0.00
2023-04-17T22:50:17.190Z,0.00
2023-04-17T22:55:17.124Z,0.00
2023-04-17T23:00:17.068Z,0.00
2023-04-17T23:05:17.120Z,0.00
2023-04-17T23:10:16.921Z,0.00
2023-04-17T23:15:16.849Z,0.00
2023-04-17T23:20:16.797Z,0.00
2023-04-17T23:25:16.716Z,0.00
2023-04-17T23:30:16.671Z,0.00
2023-04-17T23:35:16.605Z,0.00
2023-04-17T23:40:16.524Z,0.00
2023-04-17T23:45:16.463Z,0.00
2023-04-17T23:50:16.425Z,0.00
2023-04-17T23:55:16.340Z,0.00
